sensor_id;sensor_type;location;lat;lon;timestamp;P1;durP1;ratioP1;P2;durP2;ratioP2
23266;SDS011;11802;53.160;8.214;2023-05-23T00:02:16;14.55;;;10.32;;
23266;SDS011;11802;53.160;8.214;2023-05-23T00:04:42;15.30;;;10.35;;
23266;SDS011;11802;53.160;8.214;2023-05-23T00:07:08;13.60;;;10.67;;
23266;SDS011;11802;53.160;8.214;2023-05-23T00:09:34;18.10;;;11.17;;
23266;SDS011;11802;53.160;8.214;2023-05-23T00:12:00;17.63;;;11.35;;
23266;SDS011;11802;53.160;8.214;2023-05-23T00:14:26;15.00;;;11.30;;
23266;SDS011;11802;53.160;8.214;2023-05-23T00:16:55;16.33;;;12.37;;
23266;SDS011;11802;53.160;8.214;2023-05-23T00:19:20;17.02;;;11.77;;
23266;SDS011;11802;53.160;8.214;2023-05-23T00:21:46;17.90;;;12.68;;
23266;SDS011;11802;53.160;8.214;2023-05-23T00:24:12;20.65;;;12.07;;
23266;SDS011;11802;53.160;8.214;2023-05-23T00:26:38;17.10;;;12.32;;
23266;SDS011;11802;53.160;8.214;2023-05-23T00:29:04;16.05;;;12.20;;
23266;SDS011;11802;53.160;8.214;2023-05-23T00:31:29;15.07;;;10.90;;
23266;SDS011;11802;53.160;8.214;2023-05-23T00:33:55;18.05;;;12.05;;
23266;SDS011;11802;53.160;8.214;2023-05-23T00:36:21;14.85;;;11.55;;
23266;SDS011;11802;53.160;8.214;2023-05-23T00:38:46;18.10;;;11.50;;
23266;SDS011;11802;53.160;8.214;2023-05-23T00:41:13;14.93;;;10.45;;
23266;SDS011;11802;53.160;8.214;2023-05-23T00:43:39;15.30;;;10.52;;
23266;SDS011;11802;53.160;8.214;2023-05-23T00:46:04;14.40;;;10.60;;
23266;SDS011;11802;53.160;8.214;2023-05-23T00:48:30;16.13;;;10.88;;
23266;SDS011;11802;53.160;8.214;2023-05-23T00:50:56;14.50;;;10.30;;
23266;SDS011;11802;53.160;8.214;2023-05-23T00:53:22;14.77;;;10.40;;
23266;SDS011;11802;53.160;8.214;2023-05-23T00:55:48;15.48;;;10.82;;
23266;SDS011;11802;53.160;8.214;2023-05-23T00:58:14;14.63;;;9.57;;
23266;SDS011;11802;53.160;8.214;2023-05-23T01:00:41;11.25;;;9.23;;
23266;SDS011;11802;53.160;8.214;2023-05-23T01:03:08;12.75;;;9.75;;
23266;SDS011;11802;53.160;8.214;2023-05-23T01:05:41;11.93;;;9.03;;
23266;SDS011;11802;53.160;8.214;2023-05-23T01:08:08;15.00;;;8.50;;
23266;SDS011;11802;53.160;8.214;2023-05-23T01:10:33;10.73;;;7.53;;
23266;SDS011;11802;53.160;8.214;2023-05-23T01:13:09;11.15;;;8.95;;
23266;SDS011;11802;53.160;8.214;2023-05-23T01:15:57;14.38;;;9.95;;
23266;SDS011;11802;53.160;8.214;2023-05-23T01:18:36;17.55;;;10.93;;
23266;SDS011;11802;53.160;8.214;2023-05-23T01:21:17;13.83;;;9.57;;
23266;SDS011;11802;53.160;8.214;2023-05-23T01:29:26;17.00;;;11.45;;
23266;SDS011;11802;53.160;8.214;2023-05-23T01:31:56;26.33;;;16.60;;
23266;SDS011;11802;53.160;8.214;2023-05-23T01:34:22;19.92;;;13.68;;
23266;SDS011;11802;53.160;8.214;2023-05-23T01:36:49;23.13;;;14.77;;
23266;SDS011;11802;53.160;8.214;2023-05-23T01:39:19;24.67;;;15.00;;
23266;SDS011;11802;53.160;8.214;2023-05-23T01:41:45;27.35;;;17.20;;
23266;SDS011;11802;53.160;8.214;2023-05-23T01:44:10;27.60;;;17.33;;
23266;SDS011;11802;53.160;8.214;2023-05-23T01:46:36;30.70;;;18.43;;
23266;SDS011;11802;53.160;8.214;2023-05-23T01:49:04;32.57;;;19.40;;
23266;SDS011;11802;53.160;8.214;2023-05-23T01:51:32;31.52;;;20.75;;
23266;SDS011;11802;53.160;8.214;2023-05-23T01:53:58;36.80;;;22.02;;
23266;SDS011;11802;53.160;8.214;2023-05-23T01:56:24;35.13;;;20.75;;
23266;SDS011;11802;53.160;8.214;2023-05-23T01:58:52;40.90;;;23.53;;
23266;SDS011;11802;53.160;8.214;2023-05-23T02:01:18;38.37;;;21.97;;
23266;SDS011;11802;53.160;8.214;2023-05-23T02:03:44;41.23;;;22.83;;
23266;SDS011;11802;53.160;8.214;2023-05-23T02:06:10;42.50;;;23.43;;
23266;SDS011;11802;53.160;8.214;2023-05-23T02:08:36;41.53;;;25.10;;
23266;SDS011;11802;53.160;8.214;2023-05-23T02:11:01;47.63;;;25.23;;
23266;SDS011;11802;53.160;8.214;2023-05-23T02:13:27;45.33;;;24.42;;
23266;SDS011;11802;53.160;8.214;2023-05-23T02:15:52;49.70;;;27.10;;
23266;SDS011;11802;53.160;8.214;2023-05-23T02:18:18;47.07;;;25.63;;
23266;SDS011;11802;53.160;8.214;2023-05-23T02:20:44;41.70;;;24.73;;
23266;SDS011;11802;53.160;8.214;2023-05-23T02:23:09;40.93;;;23.67;;
23266;SDS011;11802;53.160;8.214;2023-05-23T02:25:35;48.03;;;25.03;;
23266;SDS011;11802;53.160;8.214;2023-05-23T02:28:01;44.63;;;23.23;;
23266;SDS011;11802;53.160;8.214;2023-05-23T02:30:26;43.60;;;24.17;;
23266;SDS011;11802;53.160;8.214;2023-05-23T02:32:52;40.67;;;24.93;;
23266;SDS011;11802;53.160;8.214;2023-05-23T02:35:17;39.27;;;23.40;;
23266;SDS011;11802;53.160;8.214;2023-05-23T02:37:43;37.40;;;21.97;;
23266;SDS011;11802;53.160;8.214;2023-05-23T02:40:08;33.87;;;18.73;;
23266;SDS011;11802;53.160;8.214;2023-05-23T02:42:34;37.13;;;22.20;;
23266;SDS011;11802;53.160;8.214;2023-05-23T02:45:00;40.30;;;22.37;;
23266;SDS011;11802;53.160;8.214;2023-05-23T02:47:25;39.83;;;23.33;;
23266;SDS011;11802;53.160;8.214;2023-05-23T02:49:51;34.33;;;20.17;;
23266;SDS011;11802;53.160;8.214;2023-05-23T02:52:16;31.33;;;20.13;;
23266;SDS011;11802;53.160;8.214;2023-05-23T02:54:42;26.70;;;16.27;;
23266;SDS011;11802;53.160;8.214;2023-05-23T02:57:07;29.20;;;17.93;;
23266;SDS011;11802;53.160;8.214;2023-05-23T02:59:33;41.10;;;20.13;;
23266;SDS011;11802;53.160;8.214;2023-05-23T03:01:58;36.67;;;19.43;;
23266;SDS011;11802;53.160;8.214;2023-05-23T03:04:24;33.83;;;18.33;;
23266;SDS011;11802;53.160;8.214;2023-05-23T03:06:50;31.63;;;18.23;;
23266;SDS011;11802;53.160;8.214;2023-05-23T03:09:18;28.23;;;17.50;;
23266;SDS011;11802;53.160;8.214;2023-05-23T03:11:44;33.17;;;19.13;;
23266;SDS011;11802;53.160;8.214;2023-05-23T03:14:09;30.33;;;17.57;;
23266;SDS011;11802;53.160;8.214;2023-05-23T03:16:35;41.50;;;20.70;;
23266;SDS011;11802;53.160;8.214;2023-05-23T03:19:01;41.73;;;20.63;;
23266;SDS011;11802;53.160;8.214;2023-05-23T03:21:27;37.67;;;20.20;;
23266;SDS011;11802;53.160;8.214;2023-05-23T03:23:52;36.80;;;20.17;;
23266;SDS011;11802;53.160;8.214;2023-05-23T03:26:18;37.93;;;20.07;;
23266;SDS011;11802;53.160;8.214;2023-05-23T03:28:43;31.10;;;17.20;;
23266;SDS011;11802;53.160;8.214;2023-05-23T03:31:09;32.53;;;19.57;;
23266;SDS011;11802;53.160;8.214;2023-05-23T03:33:34;35.73;;;20.80;;
23266;SDS011;11802;53.160;8.214;2023-05-23T03:36:00;34.20;;;19.77;;
23266;SDS011;11802;53.160;8.214;2023-05-23T03:38:26;35.17;;;20.03;;
23266;SDS011;11802;53.160;8.214;2023-05-23T03:40:51;29.23;;;18.47;;
23266;SDS011;11802;53.160;8.214;2023-05-23T03:43:17;31.53;;;19.40;;
23266;SDS011;11802;53.160;8.214;2023-05-23T03:45:43;27.07;;;16.20;;
23266;SDS011;11802;53.160;8.214;2023-05-23T03:48:09;27.57;;;16.00;;
23266;SDS011;11802;53.160;8.214;2023-05-23T03:50:35;29.53;;;17.40;;
23266;SDS011;11802;53.160;8.214;2023-05-23T03:53:00;27.73;;;16.47;;
23266;SDS011;11802;53.160;8.214;2023-05-23T03:55:26;27.43;;;16.90;;
23266;SDS011;11802;53.160;8.214;2023-05-23T03:57:51;24.77;;;16.20;;
23266;SDS011;11802;53.160;8.214;2023-05-23T04:00:17;25.03;;;15.80;;
23266;SDS011;11802;53.160;8.214;2023-05-23T04:02:43;27.23;;;16.27;;
23266;SDS011;11802;53.160;8.214;2023-05-23T04:05:13;22.37;;;14.73;;
23266;SDS011;11802;53.160;8.214;2023-05-23T04:07:39;22.23;;;15.30;;
23266;SDS011;11802;53.160;8.214;2023-05-23T04:10:06;24.07;;;15.17;;
23266;SDS011;11802;53.160;8.214;2023-05-23T04:12:32;24.97;;;15.57;;
23266;SDS011;11802;53.160;8.214;2023-05-23T04:14:58;23.53;;;14.77;;
23266;SDS011;11802;53.160;8.214;2023-05-23T04:17:24;27.87;;;15.80;;
23266;SDS011;11802;53.160;8.214;2023-05-23T04:19:50;22.17;;;14.70;;
23266;SDS011;11802;53.160;8.214;2023-05-23T04:22:16;24.10;;;15.03;;
23266;SDS011;11802;53.160;8.214;2023-05-23T04:24:41;23.83;;;13.63;;
23266;SDS011;11802;53.160;8.214;2023-05-23T04:27:07;21.73;;;13.03;;
23266;SDS011;11802;53.160;8.214;2023-05-23T04:29:33;16.67;;;11.47;;
23266;SDS011;11802;53.160;8.214;2023-05-23T04:32:00;19.17;;;10.93;;
23266;SDS011;11802;53.160;8.214;2023-05-23T04:34:26;15.17;;;10.80;;
23266;SDS011;11802;53.160;8.214;2023-05-23T04:36:51;17.50;;;10.93;;
23266;SDS011;11802;53.160;8.214;2023-05-23T04:39:17;17.03;;;10.50;;
23266;SDS011;11802;53.160;8.214;2023-05-23T04:41:43;15.13;;;10.13;;
23266;SDS011;11802;53.160;8.214;2023-05-23T04:44:09;13.53;;;8.80;;
23266;SDS011;11802;53.160;8.214;2023-05-23T04:46:35;14.53;;;9.43;;
23266;SDS011;11802;53.160;8.214;2023-05-23T04:49:01;13.93;;;8.53;;
23266;SDS011;11802;53.160;8.214;2023-05-23T04:51:28;19.07;;;10.30;;
23266;SDS011;11802;53.160;8.214;2023-05-23T04:53:53;16.33;;;9.20;;
23266;SDS011;11802;53.160;8.214;2023-05-23T04:56:19;17.37;;;10.03;;
23266;SDS011;11802;53.160;8.214;2023-05-23T04:58:45;17.53;;;10.33;;
23266;SDS011;11802;53.160;8.214;2023-05-23T05:01:11;20.23;;;11.73;;
23266;SDS011;11802;53.160;8.214;2023-05-23T05:03:38;25.10;;;11.90;;
23266;SDS011;11802;53.160;8.214;2023-05-23T05:06:04;18.70;;;11.67;;
23266;SDS011;11802;53.160;8.214;2023-05-23T05:08:30;18.87;;;12.57;;
23266;SDS011;11802;53.160;8.214;2023-05-23T05:10:56;22.80;;;12.57;;
23266;SDS011;11802;53.160;8.214;2023-05-23T05:13:21;21.87;;;12.20;;
23266;SDS011;11802;53.160;8.214;2023-05-23T05:15:47;24.27;;;11.60;;
23266;SDS011;11802;53.160;8.214;2023-05-23T05:18:12;24.83;;;11.50;;
23266;SDS011;11802;53.160;8.214;2023-05-23T05:20:38;29.13;;;12.30;;
23266;SDS011;11802;53.160;8.214;2023-05-23T05:23:03;28.33;;;12.13;;
23266;SDS011;11802;53.160;8.214;2023-05-23T05:25:29;22.90;;;11.33;;
23266;SDS011;11802;53.160;8.214;2023-05-23T05:28:00;28.93;;;10.97;;
23266;SDS011;11802;53.160;8.214;2023-05-23T05:30:30;26.93;;;11.27;;
23266;SDS011;11802;53.160;8.214;2023-05-23T05:32:59;19.93;;;9.63;;
23266;SDS011;11802;53.160;8.214;2023-05-23T05:35:29;22.50;;;9.80;;
23266;SDS011;11802;53.160;8.214;2023-05-23T05:37:56;19.40;;;9.97;;
23266;SDS011;11802;53.160;8.214;2023-05-23T05:40:21;22.60;;;10.57;;
23266;SDS011;11802;53.160;8.214;2023-05-23T05:42:47;26.20;;;10.20;;
23266;SDS011;11802;53.160;8.214;2023-05-23T05:45:12;23.57;;;9.97;;
23266;SDS011;11802;53.160;8.214;2023-05-23T05:47:38;17.10;;;8.60;;
23266;SDS011;11802;53.160;8.214;2023-05-23T05:50:04;19.73;;;9.00;;
23266;SDS011;11802;53.160;8.214;2023-05-23T05:52:32;17.33;;;7.90;;
23266;SDS011;11802;53.160;8.214;2023-05-23T05:55:02;24.70;;;8.73;;
23266;SDS011;11802;53.160;8.214;2023-05-23T05:57:28;26.83;;;8.50;;
23266;SDS011;11802;53.160;8.214;2023-05-23T05:59:54;24.37;;;7.87;;
23266;SDS011;11802;53.160;8.214;2023-05-23T06:02:20;18.00;;;7.00;;
23266;SDS011;11802;53.160;8.214;2023-05-23T06:04:46;21.37;;;7.47;;
23266;SDS011;11802;53.160;8.214;2023-05-23T06:07:11;19.10;;;6.07;;
23266;SDS011;11802;53.160;8.214;2023-05-23T06:09:37;18.53;;;6.23;;
23266;SDS011;11802;53.160;8.214;2023-05-23T06:12:02;16.67;;;6.10;;
23266;SDS011;11802;53.160;8.214;2023-05-23T06:14:28;15.27;;;5.53;;
23266;SDS011;11802;53.160;8.214;2023-05-23T06:16:54;11.97;;;5.40;;
23266;SDS011;11802;53.160;8.214;2023-05-23T06:19:19;15.70;;;4.73;;
23266;SDS011;11802;53.160;8.214;2023-05-23T06:21:45;15.50;;;5.10;;
23266;SDS011;11802;53.160;8.214;2023-05-23T06:24:10;14.80;;;5.03;;
23266;SDS011;11802;53.160;8.214;2023-05-23T06:26:36;13.63;;;5.20;;
23266;SDS011;11802;53.160;8.214;2023-05-23T06:29:01;11.03;;;4.93;;
23266;SDS011;11802;53.160;8.214;2023-05-23T06:31:27;17.27;;;4.63;;
23266;SDS011;11802;53.160;8.214;2023-05-23T06:33:53;12.70;;;4.83;;
23266;SDS011;11802;53.160;8.214;2023-05-23T06:36:19;14.87;;;4.67;;
23266;SDS011;11802;53.160;8.214;2023-05-23T06:38:45;13.10;;;4.33;;
23266;SDS011;11802;53.160;8.214;2023-05-23T06:41:11;15.37;;;4.00;;
23266;SDS011;11802;53.160;8.214;2023-05-23T06:43:37;7.43;;;3.03;;
23266;SDS011;11802;53.160;8.214;2023-05-23T06:46:02;9.37;;;3.37;;
23266;SDS011;11802;53.160;8.214;2023-05-23T06:48:28;10.40;;;2.93;;
23266;SDS011;11802;53.160;8.214;2023-05-23T06:50:54;10.67;;;3.03;;
23266;SDS011;11802;53.160;8.214;2023-05-23T06:53:19;9.87;;;2.63;;
23266;SDS011;11802;53.160;8.214;2023-05-23T06:55:45;6.83;;;2.57;;
23266;SDS011;11802;53.160;8.214;2023-05-23T06:58:11;8.33;;;2.60;;
23266;SDS011;11802;53.160;8.214;2023-05-23T07:00:36;9.87;;;3.10;;
23266;SDS011;11802;53.160;8.214;2023-05-23T07:03:02;7.33;;;3.67;;
23266;SDS011;11802;53.160;8.214;2023-05-23T07:05:29;9.80;;;3.70;;
23266;SDS011;11802;53.160;8.214;2023-05-23T07:07:55;10.77;;;4.53;;
23266;SDS011;11802;53.160;8.214;2023-05-23T07:10:20;19.57;;;5.13;;
23266;SDS011;11802;53.160;8.214;2023-05-23T07:12:46;22.03;;;5.63;;
23266;SDS011;11802;53.160;8.214;2023-05-23T07:15:12;20.83;;;5.70;;
23266;SDS011;11802;53.160;8.214;2023-05-23T07:17:39;16.47;;;6.47;;
23266;SDS011;11802;53.160;8.214;2023-05-23T07:20:05;22.37;;;6.80;;
23266;SDS011;11802;53.160;8.214;2023-05-23T07:22:31;16.93;;;6.13;;
23266;SDS011;11802;53.160;8.214;2023-05-23T07:24:56;21.23;;;6.40;;
23266;SDS011;11802;53.160;8.214;2023-05-23T07:27:22;16.13;;;5.97;;
23266;SDS011;11802;53.160;8.214;2023-05-23T07:29:49;16.27;;;5.83;;
23266;SDS011;11802;53.160;8.214;2023-05-23T07:34:57;17.97;;;6.03;;
23266;SDS011;11802;53.160;8.214;2023-05-23T07:37:23;17.33;;;5.70;;
23266;SDS011;11802;53.160;8.214;2023-05-23T07:39:48;20.63;;;5.67;;
23266;SDS011;11802;53.160;8.214;2023-05-23T07:42:23;12.90;;;5.10;;
23266;SDS011;11802;53.160;8.214;2023-05-23T07:45:13;17.33;;;5.70;;
23266;SDS011;11802;53.160;8.214;2023-05-23T07:47:42;16.93;;;4.90;;
23266;SDS011;11802;53.160;8.214;2023-05-23T07:50:08;17.17;;;4.97;;
23266;SDS011;11802;53.160;8.214;2023-05-23T07:52:34;14.57;;;5.00;;
23266;SDS011;11802;53.160;8.214;2023-05-23T07:55:00;15.87;;;4.70;;
23266;SDS011;11802;53.160;8.214;2023-05-23T07:57:25;14.73;;;4.17;;
23266;SDS011;11802;53.160;8.214;2023-05-23T07:59:51;11.33;;;4.87;;
23266;SDS011;11802;53.160;8.214;2023-05-23T08:02:18;14.70;;;4.63;;
23266;SDS011;11802;53.160;8.214;2023-05-23T08:04:45;13.87;;;4.80;;
23266;SDS011;11802;53.160;8.214;2023-05-23T08:07:12;17.30;;;4.90;;
23266;SDS011;11802;53.160;8.214;2023-05-23T08:09:38;12.73;;;4.67;;
23266;SDS011;11802;53.160;8.214;2023-05-23T08:12:04;16.73;;;4.20;;
23266;SDS011;11802;53.160;8.214;2023-05-23T08:14:31;12.20;;;4.73;;
23266;SDS011;11802;53.160;8.214;2023-05-23T08:16:56;14.13;;;4.33;;
23266;SDS011;11802;53.160;8.214;2023-05-23T08:19:22;16.90;;;4.60;;
23266;SDS011;11802;53.160;8.214;2023-05-23T08:21:47;12.47;;;4.53;;
23266;SDS011;11802;53.160;8.214;2023-05-23T08:24:13;21.00;;;5.30;;
23266;SDS011;11802;53.160;8.214;2023-05-23T08:26:38;17.83;;;5.10;;
23266;SDS011;11802;53.160;8.214;2023-05-23T08:29:04;15.07;;;4.53;;
23266;SDS011;11802;53.160;8.214;2023-05-23T08:31:32;11.47;;;5.30;;
23266;SDS011;11802;53.160;8.214;2023-05-23T08:33:58;16.17;;;5.03;;
23266;SDS011;11802;53.160;8.214;2023-05-23T08:36:24;19.10;;;5.87;;
23266;SDS011;11802;53.160;8.214;2023-05-23T08:38:49;17.73;;;4.97;;
23266;SDS011;11802;53.160;8.214;2023-05-23T08:41:19;15.77;;;4.87;;
23266;SDS011;11802;53.160;8.214;2023-05-23T08:43:49;14.70;;;4.10;;
23266;SDS011;11802;53.160;8.214;2023-05-23T08:46:15;11.43;;;4.40;;
23266;SDS011;11802;53.160;8.214;2023-05-23T08:48:41;14.70;;;4.80;;
23266;SDS011;11802;53.160;8.214;2023-05-23T08:51:12;18.30;;;5.30;;
23266;SDS011;11802;53.160;8.214;2023-05-23T08:53:40;15.77;;;4.00;;
23266;SDS011;11802;53.160;8.214;2023-05-23T08:56:11;14.20;;;4.57;;
23266;SDS011;11802;53.160;8.214;2023-05-23T08:58:37;12.30;;;3.00;;
23266;SDS011;11802;53.160;8.214;2023-05-23T09:01:05;13.10;;;4.40;;
23266;SDS011;11802;53.160;8.214;2023-05-23T09:03:32;8.87;;;3.07;;
23266;SDS011;11802;53.160;8.214;2023-05-23T09:06:01;12.83;;;3.57;;
23266;SDS011;11802;53.160;8.214;2023-05-23T09:08:30;14.23;;;3.60;;
23266;SDS011;11802;53.160;8.214;2023-05-23T09:10:56;12.47;;;3.33;;
23266;SDS011;11802;53.160;8.214;2023-05-23T09:13:22;15.83;;;3.17;;
23266;SDS011;11802;53.160;8.214;2023-05-23T09:16:04;13.87;;;3.27;;
23266;SDS011;11802;53.160;8.214;2023-05-23T09:18:40;15.70;;;3.47;;
23266;SDS011;11802;53.160;8.214;2023-05-23T09:21:08;13.97;;;3.40;;
23266;SDS011;11802;53.160;8.214;2023-05-23T09:23:35;10.93;;;3.00;;
23266;SDS011;11802;53.160;8.214;2023-05-23T09:26:08;13.07;;;3.37;;
23266;SDS011;11802;53.160;8.214;2023-05-23T09:28:36;14.63;;;3.13;;
23266;SDS011;11802;53.160;8.214;2023-05-23T09:31:14;11.97;;;2.90;;
23266;SDS011;11802;53.160;8.214;2023-05-23T09:33:47;16.13;;;3.20;;
23266;SDS011;11802;53.160;8.214;2023-05-23T09:36:14;13.60;;;3.20;;
23266;SDS011;11802;53.160;8.214;2023-05-23T09:38:42;17.23;;;3.07;;
23266;SDS011;11802;53.160;8.214;2023-05-23T09:41:09;10.97;;;2.93;;
23266;SDS011;11802;53.160;8.214;2023-05-23T09:43:38;14.27;;;3.60;;
23266;SDS011;11802;53.160;8.214;2023-05-23T09:46:08;14.07;;;3.43;;
23266;SDS011;11802;53.160;8.214;2023-05-23T09:48:35;12.93;;;3.43;;
23266;SDS011;11802;53.160;8.214;2023-05-23T09:51:08;17.40;;;3.63;;
23266;SDS011;11802;53.160;8.214;2023-05-23T09:53:34;16.30;;;4.20;;
23266;SDS011;11802;53.160;8.214;2023-05-23T09:56:01;17.07;;;3.50;;
23266;SDS011;11802;53.160;8.214;2023-05-23T09:58:28;16.07;;;3.63;;
23266;SDS011;11802;53.160;8.214;2023-05-23T10:00:54;13.93;;;3.50;;
23266;SDS011;11802;53.160;8.214;2023-05-23T10:03:23;14.90;;;3.60;;
23266;SDS011;11802;53.160;8.214;2023-05-23T10:05:59;15.40;;;3.33;;
23266;SDS011;11802;53.160;8.214;2023-05-23T10:08:35;21.33;;;3.60;;
23266;SDS011;11802;53.160;8.214;2023-05-23T10:13:42;11.55;;;2.80;;
23266;SDS011;11802;53.160;8.214;2023-05-23T10:19:12;10.57;;;3.42;;
23266;SDS011;11802;53.160;8.214;2023-05-23T10:22:00;12.68;;;3.15;;
23266;SDS011;11802;53.160;8.214;2023-05-23T10:24:28;14.82;;;3.65;;
23266;SDS011;11802;53.160;8.214;2023-05-23T10:26:54;13.07;;;3.10;;
23266;SDS011;11802;53.160;8.214;2023-05-23T10:29:37;17.65;;;4.32;;
23266;SDS011;11802;53.160;8.214;2023-05-23T10:38:03;16.05;;;3.75;;
23266;SDS011;11802;53.160;8.214;2023-05-23T10:45:47;12.52;;;3.60;;
23266;SDS011;11802;53.160;8.214;2023-05-23T10:48:21;13.68;;;3.65;;
23266;SDS011;11802;53.160;8.214;2023-05-23T10:51:03;11.80;;;3.65;;
23266;SDS011;11802;53.160;8.214;2023-05-23T10:53:39;14.95;;;3.75;;
23266;SDS011;11802;53.160;8.214;2023-05-23T10:56:07;19.90;;;4.60;;
23266;SDS011;11802;53.160;8.214;2023-05-23T10:58:34;11.23;;;3.65;;
23266;SDS011;11802;53.160;8.214;2023-05-23T11:01:09;12.75;;;3.45;;
23266;SDS011;11802;53.160;8.214;2023-05-23T11:09:15;15.85;;;3.58;;
23266;SDS011;11802;53.160;8.214;2023-05-23T11:19:54;12.40;;;3.30;;
23266;SDS011;11802;53.160;8.214;2023-05-23T11:22:26;9.93;;;2.88;;
23266;SDS011;11802;53.160;8.214;2023-05-23T11:24:53;12.18;;;3.97;;
23266;SDS011;11802;53.160;8.214;2023-05-23T11:27:26;14.25;;;3.45;;
23266;SDS011;11802;53.160;8.214;2023-05-23T11:29:59;16.55;;;4.10;;
23266;SDS011;11802;53.160;8.214;2023-05-23T11:32:28;11.75;;;3.35;;
23266;SDS011;11802;53.160;8.214;2023-05-23T11:34:57;11.70;;;3.15;;
23266;SDS011;11802;53.160;8.214;2023-05-23T11:37:36;13.73;;;3.58;;
23266;SDS011;11802;53.160;8.214;2023-05-23T11:42:53;18.30;;;4.18;;
23266;SDS011;11802;53.160;8.214;2023-05-23T11:45:19;16.25;;;3.78;;
23266;SDS011;11802;53.160;8.214;2023-05-23T11:47:46;12.23;;;3.40;;
23266;SDS011;11802;53.160;8.214;2023-05-23T11:50:11;12.43;;;3.53;;
23266;SDS011;11802;53.160;8.214;2023-05-23T11:52:37;12.18;;;3.50;;
23266;SDS011;11802;53.160;8.214;2023-05-23T11:55:02;12.27;;;3.58;;
23266;SDS011;11802;53.160;8.214;2023-05-23T11:57:29;13.15;;;3.25;;
23266;SDS011;11802;53.160;8.214;2023-05-23T11:59:54;12.63;;;3.10;;
23266;SDS011;11802;53.160;8.214;2023-05-23T12:02:20;12.18;;;3.13;;
23266;SDS011;11802;53.160;8.214;2023-05-23T12:04:47;15.27;;;3.72;;
23266;SDS011;11802;53.160;8.214;2023-05-23T12:07:13;13.70;;;3.00;;
23266;SDS011;11802;53.160;8.214;2023-05-23T12:09:44;11.88;;;3.13;;
23266;SDS011;11802;53.160;8.214;2023-05-23T12:12:11;14.52;;;3.47;;
23266;SDS011;11802;53.160;8.214;2023-05-23T12:14:37;8.85;;;3.03;;
23266;SDS011;11802;53.160;8.214;2023-05-23T12:17:10;17.83;;;3.40;;
23266;SDS011;11802;53.160;8.214;2023-05-23T12:19:36;15.88;;;3.60;;
23266;SDS011;11802;53.160;8.214;2023-05-23T12:22:05;12.88;;;3.08;;
23266;SDS011;11802;53.160;8.214;2023-05-23T12:24:32;9.23;;;3.10;;
23266;SDS011;11802;53.160;8.214;2023-05-23T12:26:59;8.45;;;3.08;;
23266;SDS011;11802;53.160;8.214;2023-05-23T12:31:57;15.43;;;3.50;;
23266;SDS011;11802;53.160;8.214;2023-05-23T12:34:23;13.57;;;3.00;;
23266;SDS011;11802;53.160;8.214;2023-05-23T12:36:49;13.63;;;3.22;;
23266;SDS011;11802;53.160;8.214;2023-05-23T12:39:19;9.13;;;2.85;;
23266;SDS011;11802;53.160;8.214;2023-05-23T12:41:49;9.52;;;2.70;;
23266;SDS011;11802;53.160;8.214;2023-05-23T12:44:20;11.15;;;2.80;;
23266;SDS011;11802;53.160;8.214;2023-05-23T12:46:45;15.45;;;3.70;;
23266;SDS011;11802;53.160;8.214;2023-05-23T12:49:12;12.85;;;3.10;;
23266;SDS011;11802;53.160;8.214;2023-05-23T12:51:37;12.98;;;3.03;;
23266;SDS011;11802;53.160;8.214;2023-05-23T12:54:03;11.40;;;3.30;;
23266;SDS011;11802;53.160;8.214;2023-05-23T12:56:29;18.73;;;3.72;;
23266;SDS011;11802;53.160;8.214;2023-05-23T12:58:55;9.18;;;2.92;;
23266;SDS011;11802;53.160;8.214;2023-05-23T13:04:47;13.38;;;3.15;;
23266;SDS011;11802;53.160;8.214;2023-05-23T13:07:13;14.07;;;3.10;;
23266;SDS011;11802;53.160;8.214;2023-05-23T13:09:38;12.52;;;2.80;;
23266;SDS011;11802;53.160;8.214;2023-05-23T13:12:04;10.00;;;2.97;;
23266;SDS011;11802;53.160;8.214;2023-05-23T13:14:29;13.55;;;3.47;;
23266;SDS011;11802;53.160;8.214;2023-05-23T13:16:55;12.02;;;3.03;;
23266;SDS011;11802;53.160;8.214;2023-05-23T13:19:20;11.90;;;3.38;;
23266;SDS011;11802;53.160;8.214;2023-05-23T13:21:46;11.05;;;3.17;;
23266;SDS011;11802;53.160;8.214;2023-05-23T13:24:11;11.13;;;3.13;;
23266;SDS011;11802;53.160;8.214;2023-05-23T13:26:37;11.70;;;2.95;;
23266;SDS011;11802;53.160;8.214;2023-05-23T13:29:03;11.95;;;2.97;;
23266;SDS011;11802;53.160;8.214;2023-05-23T13:31:29;11.23;;;2.83;;
23266;SDS011;11802;53.160;8.214;2023-05-23T13:33:55;11.27;;;2.60;;
23266;SDS011;11802;53.160;8.214;2023-05-23T13:36:20;10.23;;;2.90;;
23266;SDS011;11802;53.160;8.214;2023-05-23T13:38:46;10.90;;;3.10;;
23266;SDS011;11802;53.160;8.214;2023-05-23T13:41:11;9.68;;;3.20;;
23266;SDS011;11802;53.160;8.214;2023-05-23T13:43:37;8.02;;;2.42;;
23266;SDS011;11802;53.160;8.214;2023-05-23T13:46:02;11.00;;;2.58;;
23266;SDS011;11802;53.160;8.214;2023-05-23T13:48:28;11.93;;;2.88;;
23266;SDS011;11802;53.160;8.214;2023-05-23T13:50:54;12.13;;;3.20;;
23266;SDS011;11802;53.160;8.214;2023-05-23T13:53:20;12.25;;;3.08;;
23266;SDS011;11802;53.160;8.214;2023-05-23T13:55:46;12.73;;;2.75;;
23266;SDS011;11802;53.160;8.214;2023-05-23T13:58:11;13.18;;;3.40;;
23266;SDS011;11802;53.160;8.214;2023-05-23T14:00:37;12.70;;;2.80;;
23266;SDS011;11802;53.160;8.214;2023-05-23T14:03:04;12.77;;;3.22;;
23266;SDS011;11802;53.160;8.214;2023-05-23T14:05:30;10.60;;;2.42;;
23266;SDS011;11802;53.160;8.214;2023-05-23T14:07:56;13.65;;;3.15;;
23266;SDS011;11802;53.160;8.214;2023-05-23T14:10:21;12.77;;;2.83;;
23266;SDS011;11802;53.160;8.214;2023-05-23T14:12:47;16.58;;;3.45;;
23266;SDS011;11802;53.160;8.214;2023-05-23T14:15:12;13.10;;;3.05;;
23266;SDS011;11802;53.160;8.214;2023-05-23T14:17:38;13.00;;;3.40;;
23266;SDS011;11802;53.160;8.214;2023-05-23T14:20:04;21.10;;;3.20;;
23266;SDS011;11802;53.160;8.214;2023-05-23T14:22:30;17.27;;;3.55;;
23266;SDS011;11802;53.160;8.214;2023-05-23T14:24:56;14.55;;;2.83;;
23266;SDS011;11802;53.160;8.214;2023-05-23T14:27:22;11.38;;;2.50;;
23266;SDS011;11802;53.160;8.214;2023-05-23T14:29:47;13.23;;;2.53;;
23266;SDS011;11802;53.160;8.214;2023-05-23T14:32:13;10.10;;;2.60;;
23266;SDS011;11802;53.160;8.214;2023-05-23T14:34:39;16.40;;;3.08;;
23266;SDS011;11802;53.160;8.214;2023-05-23T14:37:05;13.38;;;2.42;;
23266;SDS011;11802;53.160;8.214;2023-05-23T14:39:31;9.18;;;2.50;;
23266;SDS011;11802;53.160;8.214;2023-05-23T14:41:56;10.50;;;2.42;;
23266;SDS011;11802;53.160;8.214;2023-05-23T14:44:22;14.38;;;2.80;;
23266;SDS011;11802;53.160;8.214;2023-05-23T14:46:47;10.88;;;2.20;;
23266;SDS011;11802;53.160;8.214;2023-05-23T14:49:14;10.82;;;2.20;;
23266;SDS011;11802;53.160;8.214;2023-05-23T14:51:41;11.43;;;2.10;;
23266;SDS011;11802;53.160;8.214;2023-05-23T14:54:07;11.60;;;2.10;;
23266;SDS011;11802;53.160;8.214;2023-05-23T14:56:33;11.70;;;2.20;;
23266;SDS011;11802;53.160;8.214;2023-05-23T14:58:59;10.15;;;2.28;;
23266;SDS011;11802;53.160;8.214;2023-05-23T15:01:25;9.68;;;2.10;;
23266;SDS011;11802;53.160;8.214;2023-05-23T15:03:50;9.77;;;2.38;;
23266;SDS011;11802;53.160;8.214;2023-05-23T15:06:16;9.05;;;2.17;;
23266;SDS011;11802;53.160;8.214;2023-05-23T15:08:42;12.57;;;3.03;;
23266;SDS011;11802;53.160;8.214;2023-05-23T15:11:07;13.40;;;3.17;;
23266;SDS011;11802;53.160;8.214;2023-05-23T15:13:33;10.38;;;2.50;;
23266;SDS011;11802;53.160;8.214;2023-05-23T15:15:59;13.82;;;2.92;;
23266;SDS011;11802;53.160;8.214;2023-05-23T15:18:25;11.73;;;2.47;;